Time;durP1;ratioP1;P1;durP2;ratioP2;P2;SDS_P1;SDS_P2;PMS_P1;PMS_P2;Temp;Humidity;BMP_temperature;BMP_pressure;BME280_temperature;BME280_humidity;BME280_pressure;Samples;Min_cycle;Max_cycle;Signal;HPM_P1;HPM_P2
2022/06/12 00:01:43;;;;;;;4.28;2.35;;;14.70;1.00;15.50;94781.00;;;;7391326;19;20672;-79
2022/06/12 00:04:10;;;;;;;4.57;2.55;;;14.70;1.00;15.40;94771.00;;;;7390898;19;20155;-76
2022/06/12 00:06:44;;;;;;;7.88;2.80;;;14.60;1.00;15.40;94757.00;;;;7391479;19;20643;-78
2022/06/12 00:09:11;;;;;;;3.88;2.70;;;14.50;1.00;15.50;94755.00;;;;7390148;19;20161;-77
2022/06/12 00:11:39;;;;;;;4.10;2.70;;;14.60;1.00;15.40;94759.00;;;;7390376;19;20163;-77
2022/06/12 00:14:15;;;;;;;7.88;2.92;;;14.50;1.00;15.40;94762.00;;;;7391876;19;20644;-79
2022/06/12 00:16:45;;;;;;;5.43;2.60;;;14.40;1.00;15.30;94767.00;;;;7391564;19;20615;-76
2022/06/12 00:19:14;;;;;;;4.05;2.47;;;14.40;1.00;15.30;94776.00;;;;7391429;19;20153;-76
2022/06/12 00:21:49;;;;;;;5.07;3.10;;;14.40;1.00;15.30;94770.00;;;;7386510;19;20209;-78
2022/06/12 00:24:20;;;;;;;8.15;2.80;;;14.30;1.00;15.30;94751.00;;;;7389910;19;20148;-79
2022/06/12 00:26:52;;;;;;;4.50;2.65;;;14.30;21.40;15.20;94783.00;;;;7389527;19;20185;-77
2022/06/12 00:29:33;;;;;;;8.77;2.60;;;14.30;33.30;15.30;94765.00;;;;7391056;19;20527;-78
2022/06/12 00:32:12;;;;;;;4.03;2.92;;;14.30;56.30;15.40;94770.00;;;;7383182;19;20150;-78
2022/06/12 00:34:50;;;;;;;8.32;3.10;;;14.30;54.50;15.30;94773.00;;;;7389836;19;20157;-78
2022/06/12 00:37:22;;;;;;;5.68;2.50;;;14.30;59.90;15.30;94770.00;;;;7389760;19;20154;-77
2022/06/12 00:39:56;;;;;;;3.38;3.08;;;14.30;96.50;15.20;94767.00;;;;7390219;19;20140;-78
2022/06/12 00:42:37;;;;;;;4.75;2.85;;;14.30;75.00;15.30;94749.00;;;;7391715;19;20482;-78
2022/06/12 00:45:42;;;;;;;4.05;2.70;;;14.30;62.20;15.30;94752.00;;;;7389075;19;20501;-79
2022/06/12 00:48:23;;;;;;;7.82;3.20;;;14.30;50.10;15.20;94757.00;;;;7392265;19;20587;-78
2022/06/12 00:51:16;;;;;;;4.30;2.80;;;14.30;52.40;15.20;94760.00;;;;7390130;19;20183;-78
2022/06/12 00:53:54;;;;;;;5.35;3.00;;;14.20;99.90;15.20;94783.00;;;;7393165;19;20682;-77
2022/06/12 00:56:49;;;;;;;6.15;3.00;;;14.20;99.90;15.10;94786.00;;;;7389896;19;20623;-80
2022/06/12 00:59:40;;;;;;;5.97;2.90;;;14.20;99.90;15.20;94766.00;;;;7391632;19;20166;-78
2022/06/12 01:02:21;;;;;;;7.03;3.00;;;14.20;99.90;15.20;94746.00;;;;7390645;19;20145;-78
2022/06/12 01:07:50;;;;;;;4.63;2.65;;;14.20;99.90;15.20;94771.00;;;;7387019;19;20156;-77
2022/06/12 01:10:19;;;;;;;6.95;2.70;;;14.20;99.90;15.20;94785.00;;;;7389033;19;20496;-78
2022/06/12 01:13:00;;;;;;;4.63;2.75;;;14.20;99.90;15.10;94783.00;;;;7390177;19;20604;-77
2022/06/12 01:15:35;;;;;;;8.07;3.08;;;14.20;99.90;15.20;94748.00;;;;7389612;19;20182;-77
2022/06/12 01:18:13;;;;;;;5.82;2.60;;;14.20;99.90;15.10;94779.00;;;;7390317;19;20613;-77
2022/06/12 01:21:22;;;;;;;5.95;3.05;;;14.20;99.90;15.00;94774.00;;;;7388760;19;20255;-78
2022/06/12 01:24:29;;;;;;;5.82;3.00;;;14.20;99.90;15.10;94776.00;;;;7388496;19;20132;-77
2022/06/12 01:27:46;;;;;;;4.57;3.00;;;14.20;99.90;14.90;94757.00;;;;7389624;19;20162;-78
2022/06/12 01:30:56;;;;;;;5.50;3.35;;;14.10;99.90;15.10;94768.00;;;;7389610;19;20655;-78
2022/06/12 01:33:46;;;;;;;4.28;2.85;;;14.10;99.90;15.20;94768.00;;;;7389518;19;20645;-77
2022/06/12 01:36:59;;;;;;;4.03;2.97;;;14.20;99.90;15.00;94756.00;;;;7390568;19;20613;-78
2022/06/12 01:40:05;;;;;;;4.95;2.50;;;14.20;99.90;14.80;94749.00;;;;7386090;19;20876;-76
2022/06/12 01:43:01;;;;;;;3.15;2.85;;;14.10;99.90;14.90;94749.00;;;;7388383;19;20156;-77
2022/06/12 01:45:53;;;;;;;4.15;2.95;;;14.10;99.90;14.90;94726.00;;;;7387842;19;20133;-76
2022/06/12 01:49:13;;;;;;;5.28;3.15;;;14.00;99.90;15.00;94746.00;;;;7389080;19;20143;-77
2022/06/12 01:52:01;;;;;;;5.47;2.70;;;14.00;99.90;14.90;94750.00;;;;7388319;19;20155;-77
2022/06/12 01:54:56;;;;;;;4.50;2.95;;;14.00;99.90;15.00;94741.00;;;;7385145;19;20169;-77
2022/06/12 01:57:46;;;;;;;6.93;2.95;;;14.00;99.90;15.10;94745.00;;;;7387897;19;20191;-76
2022/06/12 02:00:28;;;;;;;7.20;3.10;;;14.10;99.90;15.20;94755.00;;;;7387200;19;20583;-78
2022/06/12 02:03:04;;;;;;;4.75;3.05;;;14.10;99.90;15.20;94722.00;;;;7387547;19;20140;-77
2022/06/12 02:05:54;;;;;;;7.63;3.10;;;14.10;99.90;15.30;94748.00;;;;7387215;19;20149;-79
2022/06/12 02:08:30;;;;;;;3.30;2.95;;;14.20;99.90;15.40;94727.00;;;;7388652;19;20612;-77
2022/06/12 02:14:09;;;;;;;4.68;2.40;;;14.40;99.90;15.50;94740.00;;;;7390348;19;20125;-78
2022/06/12 02:16:51;;;;;;;4.00;2.80;;;14.40;99.90;15.50;94723.00;;;;7387996;19;20163;-78
2022/06/12 02:19:34;;;;;;;4.85;2.92;;;14.40;99.90;15.50;94738.00;;;;7387963;19;20591;-80
2022/06/12 02:22:22;;;;;;;5.30;2.95;;;14.50;99.90;15.70;94731.00;;;;7386841;19;21168;-77
2022/06/12 02:25:07;;;;;;;6.45;2.95;;;14.50;58.70;15.90;94721.00;;;;7385525;19;20152;-77
2022/06/12 02:27:53;;;;;;;7.30;3.08;;;14.70;1.00;15.90;94730.00;;;;7387317;19;20146;-76
2022/06/12 02:30:30;;;;;;;4.68;2.88;;;14.80;1.00;15.90;94742.00;;;;7386869;19;20149;-77
2022/06/12 02:33:18;;;;;;;5.78;2.63;;;14.80;1.00;15.90;94737.00;;;;7389022;19;20537;-77
2022/06/12 02:35:53;;;;;;;5.85;2.83;;;14.90;1.00;15.90;94688.00;;;;7387524;19;20157;-77
2022/06/12 02:39:05;;;;;;;5.25;2.60;;;15.00;1.00;16.00;94729.00;;;;7386821;19;20163;-76
2022/06/12 02:41:50;;;;;;;5.60;2.70;;;15.00;1.00;16.10;94729.00;;;;7385441;19;20136;-77
2022/06/12 02:44:35;;;;;;;4.20;2.60;;;14.90;1.00;16.10;94737.00;;;;7385706;19;20162;-76
2022/06/12 02:47:24;;;;;;;5.13;2.70;;;15.00;1.00;16.10;94664.00;;;;7386168;19;20507;-78
2022/06/12 02:50:00;;;;;;;4.70;2.67;;;15.00;1.00;16.00;94726.00;;;;7386589;19;20161;-78
2022/06/12 02:52:57;;;;;;;4.07;2.80;;;15.00;1.00;15.90;94733.00;;;;7393343;19;20152;-77
2022/06/12 02:55:44;;;;;;;4.57;2.70;;;14.90;1.00;15.80;94720.00;;;;7392074;19;20599;-78
2022/06/12 02:58:46;;;;;;;6.60;2.70;;;14.80;1.00;15.80;94724.00;;;;7392212;19;20627;-78
2022/06/12 03:01:46;;;;;;;4.65;2.60;;;14.90;1.00;15.80;94721.00;;;;7392582;19;20145;-78
2022/06/12 03:04:27;;;;;;;5.03;2.85;;;14.80;1.00;15.80;94728.00;;;;7391708;19;20178;-79
2022/06/12 03:07:00;;;;;;;7.97;3.10;;;14.70;1.00;15.70;94703.00;;;;7392887;19;20133;-77
2022/06/12 03:09:27;;;;;;;5.18;2.85;;;14.70;1.00;15.60;94701.00;;;;7394316;19;20624;-78
2022/06/12 03:11:55;;;;;;;8.52;3.00;;;14.70;1.00;15.50;94709.00;;;;7393001;19;20140;-78
2022/06/12 03:14:29;;;;;;;6.18;3.20;;;14.60;1.00;15.40;94697.00;;;;7393312;19;20233;-77
2022/06/12 03:16:56;;;;;;;4.65;2.85;;;14.50;2.30;15.40;94709.00;;;;7393536;19;20184;-77
2022/06/12 03:19:33;;;;;;;7.70;3.13;;;14.50;27.00;15.40;94696.00;;;;7392936;19;20153;-78
2022/06/12 03:22:43;;;;;;;4.60;3.22;;;14.50;48.90;15.30;94714.00;;;;7390559;19;20168;-77
2022/06/12 03:25:12;;;;;;;6.65;2.90;;;14.40;69.60;15.20;94720.00;;;;7390109;19;20496;-77
2022/06/12 03:28:03;;;;;;;5.25;2.65;;;14.30;99.90;15.20;94710.00;;;;7389563;19;20152;-77
2022/06/12 03:30:35;;;;;;;5.68;2.65;;;14.30;99.90;15.30;94729.00;;;;7390672;19;20173;-78
2022/06/12 03:34:03;;;;;;;4.95;2.38;;;14.20;99.90;15.30;94732.00;;;;7391114;19;20153;-79
2022/06/12 03:36:57;;;;;;;7.00;2.88;;;14.20;99.90;15.30;94727.00;;;;7391470;19;20132;-78
2022/06/12 03:40:01;;;;;;;5.53;2.78;;;14.20;99.90;15.00;94726.00;;;;7390240;19;21374;-78
2022/06/12 03:42:44;;;;;;;4.47;2.58;;;14.20;99.90;14.70;94743.00;;;;7390390;19;20247;-79
2022/06/12 03:45:50;;;;;;;5.20;2.90;;;14.10;99.90;14.50;94728.00;;;;7388853;19;20153;-78
2022/06/12 03:49:07;;;;;;;3.50;2.90;;;13.90;99.90;14.50;94735.00;;;;7390781;19;20500;-77
2022/06/12 03:51:55;;;;;;;5.03;2.70;;;13.80;99.90;14.60;94714.00;;;;7390012;19;20605;-77
2022/06/12 03:54:55;;;;;;;5.30;2.80;;;13.70;99.90;14.70;94734.00;;;;7386923;19;20152;-78
2022/06/12 03:57:58;;;;;;;6.10;2.92;;;13.70;99.90;15.00;94741.00;;;;7389952;19;20600;-79
2022/06/12 04:00:40;;;;;;;5.72;2.65;;;13.80;99.90;15.20;94728.00;;;;7390104;19;20136;-77
2022/06/12 04:03:34;;;;;;;8.75;2.70;;;13.90;99.90;15.40;94717.00;;;;7389943;19;20144;-77
2022/06/12 04:06:08;;;;;;;2.53;2.33;;;14.10;99.90;15.60;94716.00;;;;7387800;19;20149;-78
2022/06/12 04:08:48;;;;;;;5.13;2.85;;;14.30;99.90;15.80;94722.00;;;;7389822;19;20416;-78
2022/06/12 04:11:19;;;;;;;4.35;2.83;;;14.40;99.90;15.80;94729.00;;;;7390868;19;20944;-78
2022/06/12 04:13:54;;;;;;;4.40;2.70;;;14.50;99.90;15.80;94698.00;;;;7392902;19;20163;-77
2022/06/12 04:16:36;;;;;;;6.28;2.50;;;14.60;99.90;15.90;94710.00;;;;7391380;19;20309;-77
2022/06/12 04:19:24;;;;;;;5.93;2.58;;;14.70;99.90;16.10;94716.00;;;;7389978;19;20164;-78
2022/06/12 04:22:14;;;;;;;6.05;2.70;;;14.80;99.90;16.40;94736.00;;;;7389296;19;20153;-77
2022/06/12 04:24:57;;;;;;;5.18;2.40;;;15.00;4.20;16.50;94734.00;;;;7390377;19;20169;-77
2022/06/12 04:27:34;;;;;;;6.70;2.40;;;15.20;1.00;16.60;94736.00;;;;7391454;19;20156;-78
2022/06/12 04:30:24;;;;;;;5.10;2.65;;;15.30;1.00;16.90;94731.00;;;;7392344;19;20133;-76
2022/06/12 04:33:36;;;;;;;3.53;2.60;;;15.50;1.00;17.10;94743.00;;;;7391420;19;20181;-77
2022/06/12 04:36:13;;;;;;;4.28;2.50;;;15.70;1.00;17.10;94723.00;;;;7391319;19;20154;-78
2022/06/12 04:38:40;;;;;;;3.92;2.15;;;15.90;1.00;17.20;94714.00;;;;7391289;19;20153;-78
2022/06/12 04:41:08;;;;;;;3.85;2.60;;;16.00;99.90;17.30;94715.00;;;;7389529;19;20152;-76
2022/06/12 04:43:41;;;;;;;7.95;2.55;;;16.10;1.00;17.40;94726.00;;;;7387171;19;20136;-78
2022/06/12 04:46:10;;;;;;;5.22;2.25;;;16.20;99.90;17.40;94715.00;;;;7388086;19;20161;-78
2022/06/12 04:48:57;;;;;;;4.40;2.40;;;16.30;99.90;17.60;94707.00;;;;7388377;19;20160;-79
2022/06/12 04:51:38;;;;;;;3.47;2.35;;;16.40;99.90;17.60;94738.00;;;;7389232;19;20826;-76
2022/06/12 04:54:05;;;;;;;4.03;2.17;;;16.50;1.00;17.70;94723.00;;;;7389424;19;20514;-76
2022/06/12 04:56:39;;;;;;;5.72;2.40;;;16.50;99.90;17.80;94736.00;;;;7385550;19;20148;-78
2022/06/12 04:59:14;;;;;;;3.42;2.10;;;16.60;99.90;17.90;94738.00;;;;7387683;19;20184;-78
2022/06/12 05:01:49;;;;;;;4.68;2.28;;;16.70;99.90;18.00;94722.00;;;;7388989;19;20148;-77
2022/06/12 05:04:19;;;;;;;4.43;2.30;;;16.80;1.00;18.20;94732.00;;;;7388517;19;20796;-78
2022/06/12 05:06:49;;;;;;;3.40;2.33;;;16.80;99.90;18.20;94725.00;;;;7385001;19;20178;-76
2022/06/12 05:09:28;;;;;;;3.03;2.30;;;16.90;1.00;18.30;94736.00;;;;7386872;19;20247;-78
2022/06/12 05:11:56;;;;;;;2.88;2.00;;;17.00;99.90;18.60;94736.00;;;;7387296;19;20133;-77
2022/06/12 05:14:30;;;;;;;3.90;2.10;;;17.20;99.90;18.80;94718.00;;;;7387496;19;20152;-77
2022/06/12 05:17:07;;;;;;;3.05;2.05;;;17.40;99.90;19.10;94725.00;;;;7388714;19;20599;-77
2022/06/12 05:19:43;;;;;;;4.88;2.15;;;17.60;99.90;19.30;94723.00;;;;7390227;19;20152;-77
2022/06/12 05:22:12;;;;;;;5.95;2.45;;;17.90;99.90;19.30;94710.00;;;;7385873;19;20179;-78
2022/06/12 05:24:40;;;;;;;3.83;1.92;;;18.10;99.90;19.50;94713.00;;;;7389143;19;20154;-78
2022/06/12 05:27:21;;;;;;;2.63;1.90;;;18.30;99.90;19.60;94710.00;;;;7388651;19;20152;-78
2022/06/12 05:29:49;;;;;;;2.75;2.03;;;18.40;99.90;19.80;94726.00;;;;7389284;19;20595;-77
2022/06/12 05:32:23;;;;;;;4.03;2.10;;;18.60;99.90;20.10;94713.00;;;;7389142;19;20133;-77
2022/06/12 05:34:54;;;;;;;4.47;2.20;;;18.80;99.90;20.30;94713.00;;;;7388523;19;20683;-77
2022/06/12 05:37:22;;;;;;;4.40;2.25;;;19.00;99.90;20.40;94728.00;;;;7389299;19;20158;-77
2022/06/12 05:39:55;;;;;;;4.72;2.45;;;19.20;99.90;20.60;94717.00;;;;7387604;19;20155;-77
2022/06/12 05:42:22;;;;;;;3.75;2.28;;;19.40;99.90;20.70;94711.00;;;;7386525;19;20168;-79
2022/06/12 05:44:49;;;;;;;3.80;2.00;;;19.60;99.90;20.80;94693.00;;;;7388044;19;20156;-79
2022/06/12 05:47:23;;;;;;;2.90;2.10;;;19.70;99.90;21.20;94712.00;;;;7387379;19;20183;-78
2022/06/12 05:49:50;;;;;;;2.47;1.80;;;19.90;99.90;21.40;94717.00;;;;7387522;19;20651;-77
2022/06/12 05:52:17;;;;;;;3.53;2.10;;;20.10;21.20;21.50;94698.00;;;;7388088;19;20144;-77
2022/06/12 05:54:51;;;;;;;2.97;1.70;;;20.30;1.00;21.70;94707.00;;;;7382788;19;20145;-77
2022/06/12 05:57:18;;;;;;;2.28;1.50;;;20.50;1.00;21.80;94714.00;;;;7383199;19;20153;-77
2022/06/12 05:59:52;;;;;;;2.85;1.80;;;20.70;1.00;22.10;94715.00;;;;7387288;19;20149;-78
2022/06/12 06:02:25;;;;;;;2.72;1.75;;;20.90;1.00;21.90;94694.00;;;;7386475;19;20148;-78
2022/06/12 06:04:52;;;;;;;4.65;1.80;;;21.10;99.90;22.10;94702.00;;;;7388919;19;20133;-78
2022/06/12 06:07:19;;;;;;;2.17;1.85;;;21.30;99.90;22.20;94717.00;;;;7387511;19;20192;-76
2022/06/12 06:09:53;;;;;;;3.15;1.80;;;21.40;99.90;22.30;94708.00;;;;7389831;19;20164;-77
2022/06/12 06:12:20;;;;;;;2.92;1.80;;;21.60;99.90;22.30;94703.00;;;;7389586;19;20616;-77
2022/06/12 06:14:47;;;;;;;3.55;2.17;;;21.70;99.90;22.60;94703.00;;;;7389084;19;20580;-79
2022/06/12 06:17:21;;;;;;;3.13;1.80;;;21.80;99.90;22.80;94707.00;;;;7387423;19;20612;-78
2022/06/12 06:19:49;;;;;;;2.28;1.67;;;21.90;99.90;22.60;94705.00;;;;7385926;19;20140;-77
2022/06/12 06:22:18;;;;;;;2.70;1.80;;;22.10;99.90;22.90;94703.00;;;;7386140;19;20531;-77
2022/06/12 06:24:51;;;;;;;2.90;1.77;;;22.20;99.90;23.30;94726.00;;;;7390092;19;20136;-77
2022/06/12 06:27:18;;;;;;;3.30;2.03;;;22.30;99.90;23.30;94719.00;;;;7400756;19;20176;-76
2022/06/12 06:29:45;;;;;;;5.80;2.55;;;22.50;99.90;23.50;94736.00;;;;7400084;19;20148;-77
2022/06/12 06:32:19;;;;;;;2.67;1.80;;;22.60;99.90;23.70;94712.00;;;;7400180;19;20849;-75
2022/06/12 06:34:46;;;;;;;3.83;1.90;;;22.70;99.90;23.90;94707.00;;;;7401135;19;20159;-77
2022/06/12 06:37:13;;;;;;;3.20;1.90;;;22.80;99.90;23.70;94736.00;;;;7400598;19;20627;-77
2022/06/12 06:39:47;;;;;;;3.33;1.90;;;23.00;99.90;24.10;94732.00;;;;7400546;19;20167;-78
2022/06/12 06:42:15;;;;;;;5.70;1.90;;;23.10;99.90;24.10;94722.00;;;;7401405;19;20207;-78
2022/06/12 06:47:35;;;;;;;4.32;1.65;;;23.40;99.90;24.50;94738.00;;;;7400755;19;20518;-77
2022/06/12 06:50:05;;;;;;;3.55;1.70;;;23.50;99.90;24.50;94744.00;;;;7400204;19;21060;-76
2022/06/12 06:52:33;;;;;;;3.55;1.98;;;23.60;99.90;24.50;94711.00;;;;7400450;19;20149;-76
2022/06/12 06:55:07;;;;;;;2.70;1.88;;;23.70;99.90;24.70;94735.00;;;;7395616;19;21103;-78
2022/06/12 06:57:45;;;;;;;4.15;2.22;;;23.70;99.90;24.60;94726.00;;;;7402260;19;21483;-79
2022/06/12 07:00:32;;;;;;;3.90;2.00;;;23.80;99.90;24.90;94745.00;;;;7400491;19;20192;-78
2022/06/12 07:02:59;;;;;;;3.20;1.80;;;23.90;99.90;24.80;94716.00;;;;7399827;19;20337;-76
2022/06/12 07:05:35;;;;;;;4.20;2.08;;;23.90;99.90;25.00;94741.00;;;;7398276;19;20145;-76
2022/06/12 07:08:03;;;;;;;4.50;1.80;;;24.00;99.90;25.10;94726.00;;;;7396706;19;20591;-77
2022/06/12 07:10:33;;;;;;;3.00;1.85;;;24.10;99.90;25.20;94738.00;;;;7400774;19;20614;-78
2022/06/12 07:13:10;;;;;;;4.43;2.00;;;24.30;99.90;25.30;94737.00;;;;7399335;19;20520;-78
2022/06/12 07:15:37;;;;;;;3.03;2.30;;;24.30;99.90;25.20;94735.00;;;;7400205;19;20645;-77
2022/06/12 07:18:09;;;;;;;2.85;2.10;;;24.40;99.90;25.30;94744.00;;;;7401079;19;20657;-78
2022/06/12 07:20:49;;;;;;;2.92;1.90;;;24.50;99.90;25.50;94744.00;;;;7400921;19;20149;-78
2022/06/12 07:23:19;;;;;;;2.53;2.00;;;24.70;99.90;25.00;94704.00;;;;7396715;19;20565;-78
2022/06/12 07:25:59;;;;;;;2.50;1.95;;;24.80;99.90;25.20;94736.00;;;;7395378;19;20152;-77
2022/06/12 07:28:27;;;;;;;2.30;2.10;;;24.80;99.90;25.20;94748.00;;;;7397873;19;20141;-78
2022/06/12 07:31:02;;;;;;;3.58;2.10;;;24.80;99.90;24.90;94732.00;;;;7397181;19;20155;-76
2022/06/12 07:33:30;;;;;;;4.20;2.08;;;24.80;99.90;25.10;94741.00;;;;7398054;19;20624;-78
2022/06/12 07:35:58;;;;;;;3.78;2.20;;;24.80;99.90;25.50;94746.00;;;;7397011;19;20461;-75
2022/06/12 07:38:32;;;;;;;4.43;2.40;;;24.80;99.90;25.40;94724.00;;;;7387093;19;20623;-77
2022/06/12 07:41:02;;;;;;;3.65;2.20;;;24.80;99.90;25.20;94741.00;;;;7388880;19;20565;-76
2022/06/12 07:43:34;;;;;;;4.18;1.80;;;24.80;99.90;25.60;94738.00;;;;7388973;19;20144;-76
2022/06/12 07:46:12;;;;;;;3.40;1.70;;;24.90;99.90;25.60;94737.00;;;;7382166;19;20156;-77
2022/06/12 07:48:40;;;;;;;3.10;2.20;;;24.90;99.90;25.60;94724.00;;;;7388866;19;20152;-78
2022/06/12 07:51:14;;;;;;;2.15;1.90;;;25.00;99.90;25.50;94730.00;;;;7388640;19;20794;-76
2022/06/12 07:53:50;;;;;;;5.00;2.08;;;25.00;99.90;25.80;94722.00;;;;7388359;19;20153;-77
2022/06/12 07:56:23;;;;;;;4.80;2.10;;;25.20;99.90;25.80;94693.00;;;;7389536;19;20148;-76
2022/06/12 07:59:02;;;;;;;5.13;2.10;;;25.30;99.90;26.20;94724.00;;;;7387032;19;20248;-76
2022/06/12 08:05:25;;;;;;;3.10;2.17;;;25.50;99.90;26.30;94709.00;;;;7382688;19;20151;-77
2022/06/12 08:07:58;;;;;;;3.60;2.00;;;25.70;99.90;25.90;94719.00;;;;7395209;19;20588;-78
2022/06/12 08:10:26;;;;;;;4.43;2.00;;;25.80;99.90;26.00;94723.00;;;;7397921;19;20137;-76
2022/06/12 08:12:56;;;;;;;3.03;2.10;;;25.90;99.90;26.20;94722.00;;;;7396872;19;20129;-76
2022/06/12 08:15:30;;;;;;;2.90;2.08;;;26.00;99.90;26.20;94724.00;;;;7398084;19;20558;-74
2022/06/12 08:17:58;;;;;;;3.63;2.00;;;26.10;99.90;26.50;94708.00;;;;7394766;19;20662;-76
2022/06/12 08:20:31;;;;;;;3.30;1.92;;;26.20;99.90;26.60;94727.00;;;;7396721;19;20605;-76
2022/06/12 08:23:37;;;;;;;6.70;2.50;;;26.20;99.90;26.80;94723.00;;;;7399376;19;20150;-76
2022/06/12 08:26:42;;;;;;;4.47;2.90;;;26.30;99.90;26.60;94712.00;;;;7394029;19;20633;-79
2022/06/12 08:29:23;;;;;;;4.57;2.20;;;26.40;99.90;26.60;94721.00;;;;7394443;19;20254;-76
2022/06/12 08:32:05;;;;;;;2.90;2.08;;;26.70;99.90;26.50;94698.00;;;;7395042;19;20156;-78
2022/06/12 08:34:53;;;;;;;2.08;1.80;;;26.80;99.90;25.80;94718.00;;;;7394910;19;20132;-78
2022/06/12 08:37:28;;;;;;;4.07;2.40;;;26.70;99.90;25.30;94736.00;;;;7399372;19;20154;-77
2022/06/12 08:40:04;;;;;;;8.55;2.30;;;26.10;99.90;25.40;94731.00;;;;7395353;19;20141;-75
2022/06/12 08:42:56;;;;;;;3.65;2.35;;;25.70;99.90;26.20;94723.00;;;;7394982;19;20604;-76
2022/06/12 08:45:46;;;;;;;4.60;2.70;;;25.70;99.90;26.70;94701.00;;;;7394647;19;20149;-79
2022/06/12 08:48:57;;;;;;;6.50;2.40;;;25.90;99.90;25.80;94713.00;;;;7394137;19;20608;-76
2022/06/12 08:51:55;;;;;;;4.05;2.42;;;25.90;99.90;25.50;94722.00;;;;7397233;19;20193;-76
2022/06/12 08:54:51;;;;;;;5.00;2.40;;;25.70;99.90;24.40;94697.00;;;;7395211;19;20612;-77
2022/06/12 08:58:31;;;;;;;4.45;2.33;;;25.20;99.90;24.50;94707.00;;;;7396195;19;20125;-77
2022/06/12 09:01:05;;;;;;;3.97;2.40;;;24.80;99.90;25.80;94700.00;;;;7397982;19;20133;-75
2022/06/12 09:03:49;;;;;;;5.28;2.35;;;25.00;99.90;26.70;94708.00;;;;7397521;19;20627;-75
2022/06/12 09:07:02;;;;;;;4.13;2.42;;;25.60;99.90;25.90;94704.00;;;;7392970;19;20141;-77
2022/06/12 09:09:50;;;;;;;3.45;2.20;;;25.90;99.90;26.70;94710.00;;;;7393517;19;20585;-75
2022/06/12 09:12:43;;;;;;;3.00;2.20;;;26.30;99.90;27.60;94701.00;;;;7395056;19;20132;-76
2022/06/12 09:16:00;;;;;;;4.60;2.40;;;26.80;99.90;27.90;94683.00;;;;7396700;19;20204;-77
2022/06/12 09:18:33;;;;;;;4.45;2.10;;;27.40;99.90;27.80;94719.00;;;;7394384;19;20151;-75
2022/06/12 09:21:42;;;;;;;3.75;2.08;;;27.70;99.90;27.00;94705.00;;;;7392395;19;20164;-76
2022/06/12 09:25:00;;;;;;;5.40;2.50;;;27.50;99.90;26.70;94708.00;;;;7392588;19;20628;-75
2022/06/12 09:27:58;;;;;;;3.50;2.20;;;27.10;99.90;27.10;94715.00;;;;7392916;19;20155;-75
2022/06/12 09:30:40;;;;;;;2.75;2.40;;;26.90;99.90;27.20;94690.00;;;;7393943;19;20132;-77
2022/06/12 09:33:50;;;;;;;3.38;2.00;;;27.00;99.90;27.20;94693.00;;;;7395646;19;20608;-76
2022/06/12 09:38:18;;;;;;;5.15;2.17;;;27.10;99.90;27.80;94661.00;;;;7395016;19;20124;-76
2022/06/12 09:40:26;;;;;;;4.45;2.53;;;27.40;99.90;26.70;94711.00;;;;7390241;19;20149;-76
2022/06/12 09:43:02;;;;;;;2.30;2.08;;;27.20;99.90;25.90;94720.00;;;;7393805;19;20627;-78
2022/06/12 09:46:19;;;;;;;2.60;2.25;;;26.70;99.90;25.50;94719.00;;;;7394772;19;20617;-77
2022/06/12 09:49:17;;;;;;;4.18;2.40;;;26.10;99.90;25.00;94699.00;;;;7390500;19;20609;-78
2022/06/12 09:52:24;;;;;;;2.95;2.10;;;25.40;99.90;24.70;94722.00;;;;7392111;19;20614;-76
2022/06/12 09:55:02;;;;;;;3.40;2.33;;;25.00;99.90;25.90;94695.00;;;;7393990;19;20165;-76
2022/06/12 09:58:17;;;;;;;3.10;2.45;;;25.00;99.90;27.40;94685.00;;;;7391128;19;20133;-77
2022/06/12 10:01:11;;;;;;;3.42;2.20;;;25.90;99.90;28.10;94678.00;;;;7392312;19;20125;-77
2022/06/12 10:04:07;;;;;;;3.35;2.15;;;26.80;99.90;28.70;94657.00;;;;7392734;19;20608;-77
2022/06/12 10:07:02;;;;;;;3.33;2.40;;;27.80;99.90;29.60;94668.00;;;;7392758;19;20605;-76
2022/06/12 10:09:47;;;;;;;3.03;2.13;;;28.70;99.90;29.10;94689.00;;;;7394176;19;20152;-79
2022/06/12 10:12:26;;;;;;;3.58;2.05;;;29.30;99.90;27.90;94692.00;;;;7392818;19;20608;-77
2022/06/12 10:15:11;;;;;;;4.95;2.45;;;29.20;99.90;28.00;94680.00;;;;7394021;19;20136;-77
2022/06/12 10:18:06;;;;;;;2.90;2.03;;;28.30;99.90;28.20;94652.00;;;;7396999;19;20213;-76
2022/06/12 10:20:47;;;;;;;4.25;2.28;;;28.20;99.90;28.20;94685.00;;;;7394030;19;20128;-76
2022/06/12 10:23:15;;;;;;;3.70;2.50;;;28.20;99.90;27.40;94675.00;;;;7393649;19;20136;-76
2022/06/12 10:25:58;;;;;;;5.72;2.20;;;28.00;99.90;26.90;94683.00;;;;7391860;19;20456;-77
2022/06/12 10:28:36;;;;;;;2.50;2.30;;;27.40;99.90;26.90;94648.00;;;;7392000;19;20140;-76
2022/06/12 10:31:10;;;;;;;3.40;2.60;;;27.20;99.90;28.20;94650.00;;;;7390551;19;20603;-77
2022/06/12 10:34:04;;;;;;;3.22;2.50;;;27.50;99.90;29.50;94635.00;;;;7392447;19;20132;-76
2022/06/12 10:36:37;;;;;;;5.85;2.30;;;28.20;99.90;29.50;94648.00;;;;7392981;19;20133;-77
2022/06/12 10:39:20;;;;;;;2.92;2.40;;;28.70;99.90;29.60;94658.00;;;;7393695;19;20133;-76
2022/06/12 10:42:14;;;;;;;3.45;2.40;;;29.00;99.90;29.10;94646.00;;;;7391992;19;20497;-77
2022/06/12 10:44:58;;;;;;;4.28;2.72;;;29.00;99.90;29.30;94650.00;;;;7393168;19;20151;-76
2022/06/12 10:47:43;;;;;;;4.05;2.70;;;29.20;99.90;29.30;94640.00;;;;7388991;19;20148;-76
2022/06/12 10:50:16;;;;;;;3.15;2.33;;;29.60;99.90;29.10;94667.00;;;;7391423;19;20139;-77
2022/06/12 10:53:08;;;;;;;2.97;2.47;;;29.50;99.90;27.50;94665.00;;;;7392468;19;20128;-77
2022/06/12 10:56:08;;;;;;;3.65;2.40;;;29.00;99.90;26.90;94642.00;;;;7393080;19;20129;-76
2022/06/12 10:59:40;;;;;;;4.38;2.67;;;28.10;99.90;26.20;94662.00;;;;7391029;19;20156;-75
2022/06/12 11:02:07;;;;;;;5.43;2.72;;;27.40;99.90;27.00;94648.00;;;;7390085;19;20141;-77
2022/06/12 11:05:45;;;;;;;4.30;2.50;;;27.30;99.90;27.80;94662.00;;;;7392256;19;20141;-77
2022/06/12 11:08:51;;;;;;;5.35;2.55;;;27.80;99.90;27.10;94664.00;;;;7387975;19;20168;-74
2022/06/12 11:11:57;;;;;;;4.57;2.60;;;27.80;99.90;28.00;94638.00;;;;7393002;19;20153;-75
2022/06/12 11:14:56;;;;;;;5.20;2.83;;;27.80;99.90;28.10;94653.00;;;;7399133;19;20152;-74
2022/06/12 11:17:46;;;;;;;5.85;2.78;;;28.20;99.90;28.20;94647.00;;;;7400848;19;20159;-76
2022/06/12 11:20:27;;;;;;;4.78;2.80;;;28.00;99.90;28.30;94641.00;;;;7398190;19;20136;-76
2022/06/12 11:23:21;;;;;;;4.40;3.03;;;28.30;99.90;29.20;94613.00;;;;7400336;19;20158;-75
2022/06/12 11:26:30;;;;;;;4.63;2.70;;;28.70;99.90;28.40;94649.00;;;;7395214;19;20450;-75
2022/06/12 11:29:58;;;;;;;4.93;2.90;;;28.70;99.90;27.30;94658.00;;;;7395855;19;20532;-75
2022/06/12 11:32:59;;;;;;;3.85;2.60;;;28.40;99.90;26.60;94664.00;;;;7395336;19;20188;-76
2022/06/12 11:36:02;;;;;;;6.07;2.80;;;27.70;99.90;26.40;94653.00;;;;7397933;19;20133;-76
2022/06/12 11:39:09;;;;;;;3.22;2.50;;;27.20;99.90;27.40;94645.00;;;;7397887;19;20154;-74
2022/06/12 11:42:01;;;;;;;6.22;2.60;;;27.00;99.90;27.80;94646.00;;;;7397919;19;20483;-74
2022/06/12 11:45:04;;;;;;;5.57;2.78;;;27.40;99.90;27.30;94645.00;;;;7397556;19;20155;-76
2022/06/12 11:48:23;;;;;;;3.25;2.40;;;27.30;99.90;26.30;94636.00;;;;7397289;19;20450;-76
2022/06/12 11:51:03;;;;;;;7.32;3.22;;;27.00;99.90;26.00;94633.00;;;;7397500;19;20596;-76
2022/06/12 11:53:52;;;;;;;4.25;2.50;;;26.40;99.90;25.80;94627.00;;;;7400577;19;20603;-76
2022/06/12 11:56:44;;;;;;;4.10;2.80;;;26.00;99.90;25.60;94650.00;;;;7396431;19;20129;-75
2022/06/12 12:00:00;;;;;;;3.50;2.63;;;25.80;99.90;25.60;94653.00;;;;7397160;19;20676;-74
2022/06/12 12:02:54;;;;;;;6.88;2.70;;;25.60;99.90;25.90;94653.00;;;;7398072;19;20588;-77
2022/06/12 12:06:06;;;;;;;4.22;2.95;;;25.50;99.90;26.20;94650.00;;;;7401117;19;20481;-77
2022/06/12 12:09:12;;;;;;;5.38;3.17;;;25.70;99.90;26.20;94641.00;;;;7396814;19;20604;-79
2022/06/12 12:12:09;;;;;;;5.38;2.80;;;26.00;99.90;26.10;94639.00;;;;7395138;19;20490;-77
2022/06/12 12:14:44;;;;;;;3.47;2.67;;;25.90;99.90;26.10;94636.00;;;;7397048;19;20133;-76
2022/06/12 12:17:44;;;;;;;4.45;2.90;;;25.80;99.90;26.40;94634.00;;;;7397578;19;20162;-75
2022/06/12 12:20:29;;;;;;;3.88;2.97;;;25.90;99.90;26.20;94633.00;;;;7395188;19;20148;-77
2022/06/12 12:23:18;;;;;;;5.47;3.13;;;26.20;99.90;26.10;94605.00;;;;7395442;19;20715;-76